createdAt,value
2022-09-23T00:03:48.977Z,99864.78
2022-09-23T00:08:52.814Z,99859.20
2022-09-23T00:14:00.086Z,99862.27
2022-09-23T00:19:04.522Z,99858.10
2022-09-23T00:24:08.316Z,99853.23
2022-09-23T00:29:11.574Z,99845.25
2022-09-23T00:34:14.659Z,99843.08
2022-09-23T00:39:17.717Z,99846.00
2022-09-23T00:44:53.855Z,99847.59
2022-09-23T00:50:08.618Z,99853.35
2022-09-23T00:55:26.705Z,99853.58
2022-09-23T01:00:29.882Z,99852.92
2022-09-23T01:05:34.648Z,99858.08
2022-09-23T01:10:56.098Z,99854.64
2022-09-23T01:16:07.850Z,99850.45
2022-09-23T01:21:39.417Z,99850.81
2022-09-23T01:27:16.512Z,99852.78
2022-09-23T01:33:05.496Z,99849.86
2022-09-23T01:38:21.039Z,99848.16
2022-09-23T01:43:55.080Z,99853.00
2022-09-23T01:49:28.297Z,99846.94
2022-09-23T01:54:46.503Z,99843.64
2022-09-23T01:59:57.185Z,99843.58
2022-09-23T02:05:18.973Z,99841.88
2022-09-23T02:10:44.414Z,99840.73
2022-09-23T02:15:54.122Z,99840.83
2022-09-23T02:21:04.873Z,99844.42
2022-09-23T02:26:30.673Z,99842.80
2022-09-23T02:31:54.041Z,99844.88
2022-09-23T02:37:09.233Z,99838.56
2022-09-23T02:42:23.684Z,99838.44
2022-09-23T02:47:32.741Z,99835.32
2022-09-23T02:52:38.882Z,99837.59
2022-09-23T02:57:42.130Z,99837.80
2022-09-23T03:03:01.154Z,99838.08
2022-09-23T03:08:52.180Z,99836.95
2022-09-23T03:14:36.013Z,99838.17
2022-09-23T03:19:51.177Z,99842.90
2022-09-23T03:24:59.590Z,99842.95
2022-09-23T03:30:04.641Z,99838.50
2022-09-23T03:35:08.650Z,99836.05
2022-09-23T03:40:35.603Z,99837.95
2022-09-23T03:45:39.200Z,99836.21
2022-09-23T03:50:42.344Z,99827.39
2022-09-23T03:55:46.810Z,99831.19
2022-09-23T04:00:49.943Z,99827.48
2022-09-23T04:05:53.053Z,99832.98
2022-09-23T04:11:01.732Z,99830.64
2022-09-23T04:16:05.134Z,99832.83
2022-09-23T04:21:08.263Z,99830.29
2022-09-23T04:26:12.539Z,99831.36
2022-09-23T04:31:15.606Z,99831.78
2022-09-23T04:36:18.818Z,99838.47
2022-09-23T04:41:21.989Z,99844.88
2022-09-23T04:46:25.114Z,99846.65
2022-09-23T04:51:28.941Z,99848.10
2022-09-23T04:56:34.583Z,99847.94
2022-09-23T05:01:38.689Z,99845.52
2022-09-23T05:06:45.338Z,99843.27
2022-09-23T05:11:48.683Z,99841.88
2022-09-23T05:16:51.601Z,99844.27
2022-09-23T05:21:54.460Z,99848.96
2022-09-23T05:26:57.297Z,99847.52
2022-09-23T05:32:01.678Z,99850.52
2022-09-23T05:37:05.433Z,99850.14
2022-09-23T05:42:08.303Z,99849.50
2022-09-23T05:47:11.193Z,99850.19
2022-09-23T05:52:14.062Z,99845.70
2022-09-23T05:57:16.929Z,99851.02
2022-09-23T06:02:19.841Z,99856.39
2022-09-23T06:07:22.817Z,99858.73
2022-09-23T06:12:25.687Z,99861.42
2022-09-23T06:17:28.571Z,99862.14
2022-09-23T06:22:31.728Z,99864.91
2022-09-23T06:27:35.053Z,99864.87
2022-09-23T06:32:38.005Z,99863.70
2022-09-23T06:37:40.907Z,99868.52
2022-09-23T06:42:47.108Z,99871.20
2022-09-23T06:47:58.299Z,99870.47
2022-09-23T06:53:01.237Z,99868.20
2022-09-23T06:58:04.138Z,99869.10
2022-09-23T07:03:08.935Z,99862.91
2022-09-23T07:08:11.811Z,99873.06
2022-09-23T07:13:16.401Z,99874.20
2022-09-23T07:18:22.019Z,99876.06
2022-09-23T07:23:25.928Z,99872.20
2022-09-23T07:28:29.317Z,99871.83
2022-09-23T07:33:33.415Z,99871.52
2022-09-23T07:38:41.628Z,99876.16
2022-09-23T07:43:48.136Z,99877.05
2022-09-23T07:48:50.999Z,99875.21
2022-09-23T07:53:56.882Z,99880.09
2022-09-23T07:59:01.747Z,99878.06
2022-09-23T08:04:11.091Z,99878.29
2022-09-23T08:09:14.943Z,99875.89
2022-09-23T08:14:18.552Z,99877.23
2022-09-23T08:19:21.381Z,99873.95
2022-09-23T08:24:26.674Z,99872.04
2022-09-23T08:29:29.713Z,99864.74
2022-09-23T08:34:32.562Z,99865.20
2022-09-23T08:39:35.461Z,99871.08
2022-09-23T08:44:56.876Z,99869.06
2022-09-23T08:50:27.002Z,99865.48
2022-09-23T08:55:42.119Z,99864.85
2022-09-23T09:01:08.116Z,99864.52
2022-09-23T09:06:19.043Z,99860.90
2022-09-23T09:11:24.258Z,99859.41
2022-09-23T09:16:59.846Z,99852.38
2022-09-23T09:22:09.527Z,99849.02
2022-09-23T09:27:13.945Z,99846.83
2022-09-23T09:32:46.476Z,99842.50
2022-09-23T09:37:49.484Z,99841.61
2022-09-23T09:42:52.497Z,99833.92
2022-09-23T09:48:13.631Z,99834.17
2022-09-23T09:53:30.604Z,99821.91
2022-09-23T09:59:00.434Z,99819.07
2022-09-23T10:04:33.993Z,99813.45
2022-09-23T10:09:39.840Z,99809.02
2022-09-23T10:14:43.789Z,99807.67
2022-09-23T10:19:49.760Z,99806.35
2022-09-23T10:24:55.203Z,99803.73
2022-09-23T10:30:21.848Z,99801.28
2022-09-23T10:35:26.685Z,99796.80
2022-09-23T10:40:48.286Z,99793.58
2022-09-23T10:46:12.705Z,99778.91
2022-09-23T10:52:22.412Z,99786.98
2022-09-23T10:58:00.130Z,99786.21
2022-09-23T11:03:26.047Z,99792.02
2022-09-23T11:08:32.061Z,99787.73
2022-09-23T11:13:58.989Z,99777.98
2022-09-23T11:19:32.429Z,99780.17
2022-09-23T11:25:05.221Z,99776.16
2022-09-23T11:30:08.270Z,99767.32
2022-09-23T11:35:56.936Z,99758.75
2022-09-23T11:41:09.991Z,99755.17
2022-09-23T11:46:40.912Z,99751.75
2022-09-23T11:52:06.051Z,99744.73
2022-09-23T11:57:23.258Z,99742.14
2022-09-23T12:03:05.842Z,99740.96
2022-09-23T12:08:29.443Z,99735.63
2022-09-23T12:14:03.556Z,99729.69
2022-09-23T12:19:19.235Z,99724.98
2022-09-23T12:24:52.143Z,99719.53
2022-09-23T12:29:59.816Z,99713.15
2022-09-23T12:35:02.846Z,99705.14
2022-09-23T12:40:19.218Z,99703.08
2022-09-23T12:45:32.769Z,99699.17
2022-09-23T12:50:54.994Z,99695.96
2022-09-23T12:55:59.642Z,99703.77
2022-09-23T13:01:20.245Z,99700.39
2022-09-23T13:06:40.238Z,99693.43
2022-09-23T13:11:48.025Z,99686.05
2022-09-23T13:16:51.859Z,99677.13
2022-09-23T13:21:54.662Z,99682.95
2022-09-23T13:27:15.781Z,99676.88
2022-09-23T13:32:21.792Z,99672.25
2022-09-23T13:37:38.886Z,99665.11
2022-09-23T13:42:43.944Z,99660.82
2022-09-23T13:47:49.207Z,99662.58
2022-09-23T13:52:56.649Z,99659.12
2022-09-23T13:58:06.122Z,99658.64
2022-09-23T14:03:21.731Z,99656.01
2022-09-23T14:08:25.544Z,99654.95
2022-09-23T14:13:32.293Z,99652.15
2022-09-23T14:18:40.533Z,99645.38
2022-09-23T14:23:46.431Z,99642.23
2022-09-23T14:28:50.512Z,99638.10
2022-09-23T14:33:53.405Z,99631.86
2022-09-23T14:39:12.486Z,99628.75
2022-09-23T14:44:25.158Z,99641.82
2022-09-23T14:49:28.176Z,99635.92
2022-09-23T14:54:44.289Z,99633.61
2022-09-23T14:59:53.732Z,99629.52
2022-09-23T15:05:45.257Z,99624.23
2022-09-23T15:10:48.873Z,99620.56
2022-09-23T15:15:53.287Z,99622.52
2022-09-23T15:21:18.581Z,99624.46
2022-09-23T15:26:23.925Z,99625.64
2022-09-23T15:31:27.337Z,99625.45
2022-09-23T15:36:30.308Z,99625.94
2022-09-23T15:41:33.751Z,99623.42
2022-09-23T15:46:36.646Z,99626.80
2022-09-23T15:51:39.631Z,99623.23
2022-09-23T15:56:42.632Z,99621.84
2022-09-23T16:01:46.010Z,99620.66
2022-09-23T16:06:50.521Z,99616.38
2022-09-23T16:11:53.347Z,99607.64
2022-09-23T16:16:56.328Z,99620.38
2022-09-23T16:21:59.284Z,99620.02
2022-09-23T16:27:07.874Z,99622.30
2022-09-23T16:32:10.752Z,99628.49
2022-09-23T16:37:16.515Z,99626.21
2022-09-23T16:42:19.970Z,99623.77
2022-09-23T16:47:23.034Z,99620.52
2022-09-23T16:52:25.956Z,99623.95
2022-09-23T16:57:32.513Z,99619.54
2022-09-23T17:02:54.065Z,99620.77
2022-09-23T17:07:57.654Z,99619.74
2022-09-23T17:13:00.676Z,99620.59
2022-09-23T17:18:06.499Z,99624.37
2022-09-23T17:23:09.515Z,99628.69
2022-09-23T17:28:12.362Z,99620.92
2022-09-23T17:33:20.052Z,99618.33
2022-09-23T17:38:29.335Z,99620.93
2022-09-23T17:49:01.837Z,99623.66
2022-09-23T17:54:04.833Z,99630.36
2022-09-23T17:59:12.726Z,99631.68
2022-09-23T18:04:15.647Z,99630.79
2022-09-23T18:09:19.550Z,99628.78
2022-09-23T18:14:23.589Z,99628.66
2022-09-23T18:19:26.913Z,99631.04
2022-09-23T18:24:33.336Z,99636.36
2022-09-23T18:29:38.036Z,99624.39
2022-09-23T18:34:43.486Z,99628.38
2022-09-23T18:39:46.454Z,99633.23
2022-09-23T18:44:58.825Z,99634.41
2022-09-23T18:50:20.447Z,99632.83
2022-09-23T18:55:28.677Z,99632.35
2022-09-23T19:00:31.669Z,99628.31
2022-09-23T19:05:34.682Z,99634.75
2022-09-23T19:10:37.549Z,99636.48
2022-09-23T19:15:40.471Z,99631.86
2022-09-23T19:20:54.270Z,99634.95
2022-09-23T19:25:57.157Z,99632.44
2022-09-23T19:31:16.815Z,99631.55
2022-09-23T19:36:28.622Z,99635.98
2022-09-23T19:41:33.612Z,99636.89
2022-09-23T19:46:40.880Z,99634.89
2022-09-23T19:51:46.499Z,99631.90
2022-09-23T19:56:50.265Z,99632.45
2022-09-23T20:01:53.337Z,99633.27
2022-09-23T20:06:56.250Z,99634.46
2022-09-23T20:12:01.281Z,99640.71
2022-09-23T20:17:04.152Z,99643.25
2022-09-23T20:22:27.493Z,99642.36
2022-09-23T20:27:34.960Z,99638.63
2022-09-23T20:32:40.744Z,99637.02
2022-09-23T20:37:46.925Z,99630.35
2022-09-23T20:42:49.847Z,99633.42
2022-09-23T20:47:52.739Z,99626.73
2022-09-23T20:52:56.460Z,99627.33
2022-09-23T20:58:00.073Z,99622.41
2022-09-23T21:03:02.957Z,99621.24
2022-09-23T21:08:05.889Z,99617.72
2022-09-23T21:13:08.789Z,99614.52
2022-09-23T21:18:15.583Z,99619.31
2022-09-23T21:23:21.953Z,99613.92
2022-09-23T21:28:26.967Z,99606.70
2022-09-23T21:33:31.041Z,99603.11
2022-09-23T21:38:38.046Z,99602.47
2022-09-23T21:43:41.658Z,99607.93
2022-09-23T21:48:44.517Z,99609.55
2022-09-23T21:53:47.580Z,99611.34
2022-09-23T21:58:52.833Z,99620.45
2022-09-23T22:04:09.571Z,99614.58
2022-09-23T22:09:19.418Z,99611.75
2022-09-23T22:14:26.046Z,99614.27
2022-09-23T22:19:44.225Z,99616.23
2022-09-23T22:24:50.096Z,99615.50
2022-09-23T22:30:11.439Z,99618.80
2022-09-23T22:35:17.913Z,99616.70
2022-09-23T22:40:24.364Z,99608.06
2022-09-23T22:45:27.774Z,99606.96
2022-09-23T22:50:30.807Z,99603.85
2022-09-23T22:55:34.418Z,99608.05
2022-09-23T23:00:38.214Z,99600.36
2022-09-23T23:05:41.057Z,99599.75
2022-09-23T23:10:44.344Z,99596.89
2022-09-23T23:15:49.001Z,99595.27
2022-09-23T23:20:52.108Z,99585.61
2022-09-23T23:25:55.309Z,99586.34
2022-09-23T23:31:07.647Z,99582.95
2022-09-23T23:36:13.548Z,99578.80
2022-09-23T23:41:20.405Z,99581.05
2022-09-23T23:46:26.586Z,99577.89
2022-09-23T23:51:30.155Z,99576.69
2022-09-23T23:56:33.288Z,99573.27
